Time;durP1;ratioP1;P1;durP2;ratioP2;P2;SDS_P1;SDS_P2;PMS_P1;PMS_P2;Temp;Humidity;BMP_temperature;BMP_pressure;BME280_temperature;BME280_humidity;BME280_pressure;Samples;Min_cycle;Max_cycle;Signal;HPM_P1;HPM_P2
2023/01/30 00:01:23;;;;;;;8.23;6.07;;;6.30;99.90;;;;;;5063314;28;20204;-61
2023/01/30 00:03:51;;;;;;;8.33;5.70;;;6.20;99.90;;;;;;5044927;28;20201;-61
2023/01/30 00:06:19;;;;;;;10.73;7.23;;;6.30;99.90;;;;;;5047351;28;20190;-61
2023/01/30 00:08:46;;;;;;;8.27;5.80;;;6.30;99.90;;;;;;5046046;28;20188;-61
2023/01/30 00:11:16;;;;;;;9.03;6.83;;;6.30;99.90;;;;;;5047751;28;20646;-62
2023/01/30 00:13:43;;;;;;;12.17;7.47;;;6.30;99.90;;;;;;5045141;28;20201;-62
2023/01/30 00:16:11;;;;;;;12.20;6.93;;;6.20;99.90;;;;;;5045659;28;20201;-62
2023/01/30 00:18:39;;;;;;;10.03;7.40;;;6.20;99.90;;;;;;5046127;28;20204;-61
2023/01/30 00:21:09;;;;;;;10.03;7.30;;;6.20;99.90;;;;;;5047895;28;20230;-62
2023/01/30 00:23:37;;;;;;;10.30;6.67;;;6.20;99.90;;;;;;5044044;28;20278;-62
2023/01/30 00:26:05;;;;;;;7.23;5.60;;;6.20;99.90;;;;;;5044448;28;20293;-61
2023/01/30 00:28:33;;;;;;;9.83;6.50;;;6.10;99.90;;;;;;5044910;28;20206;-61
2023/01/30 00:31:00;;;;;;;7.80;5.60;;;6.10;99.90;;;;;;5043690;28;20717;-61
2023/01/30 00:33:27;;;;;;;10.70;7.20;;;6.20;99.90;;;;;;5047422;28;20199;-62
2023/01/30 00:35:56;;;;;;;11.50;7.97;;;6.20;99.90;;;;;;5045092;28;20207;-61
2023/01/30 00:38:25;;;;;;;9.67;6.83;;;6.20;99.90;;;;;;5047224;28;20210;-62
2023/01/30 00:40:52;;;;;;;12.00;8.13;;;6.10;99.90;;;;;;5043161;28;20190;-62
2023/01/30 00:49:05;;;;;;;8.53;6.40;;;5.90;99.90;;;;;;5012460;28;20238;-61
2023/01/30 00:51:32;;;;;;;12.53;7.27;;;5.90;99.90;;;;;;5046031;28;21489;-61
2023/01/30 00:54:01;;;;;;;9.77;7.07;;;5.90;99.90;;;;;;5045421;28;20198;-60
2023/01/30 00:56:28;;;;;;;8.73;6.40;;;5.90;99.90;;;;;;5043838;28;20274;-61
2023/01/30 00:58:57;;;;;;;8.30;6.10;;;5.80;99.90;;;;;;5045969;28;20664;-61
2023/01/30 01:01:24;;;;;;;8.47;6.27;;;5.80;99.90;;;;;;5044402;28;20192;-61
2023/01/30 01:03:51;;;;;;;6.73;5.70;;;5.80;99.90;;;;;;5046694;28;20203;-60
2023/01/30 01:06:19;;;;;;;9.00;6.30;;;5.80;99.90;;;;;;5043515;28;20581;-61
2023/01/30 01:08:46;;;;;;;10.73;7.37;;;5.80;99.90;;;;;;5042943;28;20189;-61
2023/01/30 01:11:23;;;;;;;12.13;7.77;;;5.80;99.90;;;;;;5045698;28;20685;-61
2023/01/30 01:13:54;;;;;;;10.53;7.03;;;5.80;99.90;;;;;;5045106;28;20204;-61
2023/01/30 01:16:22;;;;;;;9.47;6.20;;;5.80;99.90;;;;;;5041695;28;20558;-61
2023/01/30 01:18:50;;;;;;;9.67;6.93;;;5.80;99.90;;;;;;5043584;28;20206;-61
2023/01/30 01:21:18;;;;;;;9.80;6.97;;;5.80;99.90;;;;;;5042760;28;20199;-61
2023/01/30 01:23:50;;;;;;;9.53;6.93;;;5.80;99.90;;;;;;5046092;28;20291;-61
2023/01/30 01:26:20;;;;;;;10.00;6.97;;;5.80;99.90;;;;;;5042325;28;20227;-61
2023/01/30 01:28:48;;;;;;;9.33;6.20;;;5.90;99.90;;;;;;5045007;28;20199;-61
2023/01/30 01:31:16;;;;;;;9.77;6.97;;;5.90;99.90;;;;;;5047254;28;20208;-61
2023/01/30 01:33:44;;;;;;;10.80;7.00;;;5.90;99.90;;;;;;5047143;28;20209;-61
2023/01/30 01:36:11;;;;;;;10.27;6.63;;;5.90;99.90;;;;;;5047577;28;20222;-61
2023/01/30 01:38:38;;;;;;;9.20;6.40;;;5.90;99.90;;;;;;5045724;28;20872;-61
2023/01/30 01:41:05;;;;;;;10.17;7.40;;;5.90;99.90;;;;;;5044721;28;20202;-61
2023/01/30 01:43:35;;;;;;;10.10;6.67;;;5.80;99.90;;;;;;5049842;28;20562;-61
2023/01/30 01:46:08;;;;;;;6.30;5.30;;;5.80;99.90;;;;;;5050310;28;20199;-60
2023/01/30 01:48:39;;;;;;;9.03;6.70;;;5.90;99.90;;;;;;5045725;28;20194;-61
2023/01/30 01:51:11;;;;;;;8.93;6.67;;;5.90;99.90;;;;;;5052808;28;20222;-61
2023/01/30 01:53:43;;;;;;;10.20;6.93;;;5.80;99.90;;;;;;5045048;28;20278;-62
2023/01/30 01:56:14;;;;;;;6.97;5.67;;;5.80;99.90;;;;;;5043829;28;20664;-61
2023/01/30 01:58:47;;;;;;;8.27;6.27;;;5.80;99.90;;;;;;5049317;28;20679;-62
2023/01/30 02:04:00;;;;;;;8.40;6.07;;;5.80;99.90;;;;;;4455190;22;20618;-67
2023/01/30 02:06:29;;;;;;;9.30;6.00;;;5.80;99.90;;;;;;5075596;28;20303;-67
2023/01/30 02:08:59;;;;;;;9.50;6.30;;;5.80;99.90;;;;;;5066301;28;20219;-67
2023/01/30 02:11:31;;;;;;;7.40;5.37;;;5.80;99.90;;;;;;5101100;28;20215;-67
2023/01/30 02:14:01;;;;;;;8.53;5.63;;;5.80;99.90;;;;;;5095954;28;20586;-67
2023/01/30 02:16:28;;;;;;;8.87;6.17;;;5.80;99.90;;;;;;5068109;28;20259;-67
2023/01/30 02:18:56;;;;;;;9.43;6.43;;;5.80;99.90;;;;;;5096597;28;20297;-67
2023/01/30 02:21:55;;;;;;;8.47;6.27;;;5.90;99.90;;;;;;5099721;28;20189;-67
2023/01/30 02:25:07;;;;;;;11.50;7.00;;;5.80;99.90;;;;;;5093223;28;20276;-67
2023/01/30 02:27:54;;;;;;;9.90;6.90;;;5.80;99.90;;;;;;5067369;28;20583;-67
2023/01/30 02:30:53;;;;;;;11.53;6.60;;;5.80;99.90;;;;;;5067507;28;20203;-67
2023/01/30 02:33:30;;;;;;;11.40;7.53;;;5.80;99.90;;;;;;5066619;28;20193;-67
2023/01/30 02:36:06;;;;;;;8.13;5.93;;;5.80;99.90;;;;;;5077808;28;20288;-67
2023/01/30 02:38:41;;;;;;;8.63;6.20;;;5.80;99.90;;;;;;5081983;28;20724;-67
2023/01/30 02:41:20;;;;;;;11.23;7.53;;;5.80;99.90;;;;;;5069619;28;20458;-67
2023/01/30 02:43:58;;;;;;;10.70;7.03;;;5.80;99.90;;;;;;5102461;28;20192;-67
2023/01/30 02:46:33;;;;;;;8.40;5.97;;;5.80;99.90;;;;;;5096629;28;20193;-67
2023/01/30 02:49:06;;;;;;;9.40;7.03;;;5.80;99.90;;;;;;5076596;28;20213;-67
2023/01/30 02:51:37;;;;;;;8.97;6.30;;;5.80;99.90;;;;;;5071785;28;20296;-67
2023/01/30 02:54:06;;;;;;;10.33;6.70;;;5.80;99.90;;;;;;5092389;28;20220;-67
2023/01/30 02:56:44;;;;;;;9.73;6.43;;;5.80;99.90;;;;;;5070781;28;20199;-67
2023/01/30 02:59:15;;;;;;;11.13;7.17;;;5.80;99.90;;;;;;5061595;28;20228;-66
2023/01/30 03:02:13;;;;;;;9.33;6.37;;;5.80;99.90;;;;;;5066021;28;20289;-67
2023/01/30 03:05:15;;;;;;;10.63;7.00;;;5.80;99.90;;;;;;5069978;28;20206;-68
2023/01/30 03:07:48;;;;;;;9.70;6.60;;;5.80;99.90;;;;;;5064729;28;20257;-67
2023/01/30 03:10:24;;;;;;;10.83;7.00;;;5.80;99.90;;;;;;5068293;28;20206;-67
2023/01/30 03:13:02;;;;;;;8.93;6.73;;;5.80;99.90;;;;;;5068520;28;20607;-67
2023/01/30 03:15:34;;;;;;;10.50;7.03;;;5.80;99.90;;;;;;5069593;28;20193;-67
2023/01/30 03:18:03;;;;;;;11.57;7.43;;;5.70;99.90;;;;;;5097199;28;21188;-67
2023/01/30 03:20:31;;;;;;;9.07;5.97;;;5.70;99.90;;;;;;5073621;28;20184;-66
2023/01/30 03:22:58;;;;;;;10.27;6.73;;;5.70;99.90;;;;;;5066579;28;20199;-67
2023/01/30 03:25:26;;;;;;;7.57;5.47;;;5.70;99.90;;;;;;5102866;28;20731;-66
2023/01/30 03:27:55;;;;;;;10.27;5.83;;;5.70;99.90;;;;;;5072767;28;20245;-66
2023/01/30 03:30:25;;;;;;;8.23;5.27;;;5.70;99.90;;;;;;5082824;28;20266;-67
2023/01/30 03:33:01;;;;;;;7.37;5.40;;;5.80;99.90;;;;;;5065687;28;20263;-66
2023/01/30 03:35:30;;;;;;;6.40;4.97;;;5.80;99.90;;;;;;5066892;28;20196;-67
2023/01/30 03:37:58;;;;;;;7.13;4.80;;;5.80;99.90;;;;;;5104796;28;20348;-67
2023/01/30 03:40:26;;;;;;;6.20;4.57;;;5.80;99.90;;;;;;5103078;28;20192;-67
2023/01/30 03:42:54;;;;;;;5.93;4.33;;;5.70;99.90;;;;;;5096260;28;20643;-66
2023/01/30 03:45:21;;;;;;;5.13;4.57;;;5.70;99.90;;;;;;5100971;28;20228;-66
2023/01/30 03:47:48;;;;;;;7.03;4.37;;;5.70;99.90;;;;;;5102507;28;20202;-66
2023/01/30 03:50:18;;;;;;;5.27;4.27;;;5.70;99.90;;;;;;5071788;28;20619;-66
2023/01/30 03:52:46;;;;;;;5.67;4.10;;;5.70;99.90;;;;;;5068232;28;20245;-67
2023/01/30 03:55:17;;;;;;;4.77;4.27;;;5.70;99.90;;;;;;5067809;28;20205;-66
2023/01/30 03:57:44;;;;;;;3.50;3.20;;;5.60;99.90;;;;;;5072791;28;20203;-67
2023/01/30 04:00:13;;;;;;;6.43;4.53;;;5.60;99.90;;;;;;5098252;28;20678;-66
2023/01/30 04:02:49;;;;;;;4.70;3.77;;;5.70;99.90;;;;;;5101882;28;20220;-67
2023/01/30 04:05:19;;;;;;;3.63;3.33;;;5.60;99.90;;;;;;5067855;28;20208;-66
2023/01/30 04:07:57;;;;;;;4.87;3.60;;;5.60;99.90;;;;;;5069209;28;20302;-66
2023/01/30 04:10:24;;;;;;;4.00;2.93;;;5.70;99.90;;;;;;5068913;28;20330;-67
2023/01/30 04:12:52;;;;;;;3.30;3.00;;;5.70;99.90;;;;;;5088793;28;20204;-67
2023/01/30 04:15:20;;;;;;;3.00;2.67;;;5.70;99.90;;;;;;5075813;28;20203;-67
2023/01/30 04:17:47;;;;;;;2.77;2.57;;;5.70;99.90;;;;;;5101986;28;20211;-67
2023/01/30 04:20:39;;;;;;;4.57;3.50;;;5.70;99.90;;;;;;5086089;28;20197;-67
2023/01/30 04:23:06;;;;;;;3.53;2.70;;;5.70;99.90;;;;;;5069476;28;20194;-68
2023/01/30 04:25:34;;;;;;;5.33;3.10;;;5.00;99.90;;;;;;5065294;28;20212;-67
2023/01/30 04:28:01;;;;;;;3.47;2.60;;;5.70;99.90;;;;;;5078279;28;20669;-67
2023/01/30 04:30:33;;;;;;;5.60;2.77;;;5.70;99.90;;;;;;5067670;28;20220;-67
2023/01/30 04:33:26;;;;;;;3.30;2.80;;;5.70;99.90;;;;;;5096209;28;20697;-68
2023/01/30 04:35:57;;;;;;;3.03;2.83;;;5.70;99.90;;;;;;5070615;28;20196;-67
2023/01/30 04:38:26;;;;;;;5.37;2.73;;;5.70;99.90;;;;;;5071069;28;20285;-67
2023/01/30 04:40:56;;;;;;;3.07;2.53;;;5.70;99.90;;;;;;5065646;28;20216;-68
2023/01/30 04:43:24;;;;;;;2.57;2.33;;;5.70;99.90;;;;;;5068525;28;20766;-66
2023/01/30 04:46:10;;;;;;;2.40;2.20;;;5.70;99.90;;;;;;5104274;28;20642;-66
2023/01/30 04:48:38;;;;;;;2.90;2.30;;;5.70;99.90;;;;;;5077386;28;20225;-66
2023/01/30 04:51:07;;;;;;;2.17;2.07;;;5.70;99.90;;;;;;5068712;28;20255;-66
2023/01/30 04:53:36;;;;;;;2.70;2.50;;;5.60;99.90;;;;;;5098274;28;20243;-66
2023/01/30 04:56:03;;;;;;;2.00;1.90;;;5.60;99.90;;;;;;5065591;28;20209;-66
2023/01/30 04:58:31;;;;;;;2.87;2.37;;;5.60;99.90;;;;;;5068761;28;20189;-66
2023/01/30 05:01:13;;;;;;;2.47;2.20;;;5.60;99.90;;;;;;5065420;28;20694;-66
2023/01/30 05:03:40;;;;;;;2.97;2.53;;;5.60;99.90;;;;;;5100071;28;20307;-66
2023/01/30 05:06:09;;;;;;;3.90;2.60;;;5.60;99.90;;;;;;5096555;28;20680;-66
2023/01/30 05:08:36;;;;;;;3.13;2.50;;;5.60;99.90;;;;;;5099477;28;20190;-67
2023/01/30 05:11:03;;;;;;;2.77;2.30;;;5.60;99.90;;;;;;5101209;28;20206;-68
2023/01/30 05:13:30;;;;;;;2.00;1.90;;;5.60;99.90;;;;;;5073302;28;20212;-67
2023/01/30 05:15:58;;;;;;;2.53;2.33;;;5.60;99.90;;;;;;5099631;28;20201;-67
2023/01/30 05:18:25;;;;;;;2.00;1.90;;;5.60;99.90;;;;;;5094697;28;20208;-67
2023/01/30 05:20:52;;;;;;;1.90;1.80;;;5.60;99.90;;;;;;5098152;28;20301;-67
2023/01/30 05:23:20;;;;;;;2.23;2.03;;;5.70;99.90;;;;;;5070271;28;20284;-67
2023/01/30 05:25:47;;;;;;;2.57;2.30;;;5.70;99.90;;;;;;5105804;28;20189;-67
2023/01/30 05:28:16;;;;;;;2.30;2.10;;;5.70;99.90;;;;;;5100290;28;20211;-67
2023/01/30 05:30:43;;;;;;;2.37;2.17;;;5.70;99.90;;;;;;5098598;28;20205;-67
2023/01/30 05:33:10;;;;;;;3.03;2.23;;;5.70;99.90;;;;;;5094813;28;20255;-67
2023/01/30 05:35:37;;;;;;;2.10;2.00;;;5.70;99.90;;;;;;5102311;28;20188;-66
2023/01/30 05:38:05;;;;;;;2.33;2.10;;;5.60;99.90;;;;;;5099913;28;20209;-68
2023/01/30 05:40:33;;;;;;;3.00;2.00;;;5.60;99.90;;;;;;5076285;28;20201;-67
2023/01/30 05:43:00;;;;;;;1.67;1.57;;;5.60;99.90;;;;;;5097245;28;20198;-67
2023/01/30 05:45:27;;;;;;;1.70;1.60;;;5.60;99.90;;;;;;5069915;28;20220;-67
2023/01/30 05:47:54;;;;;;;2.13;1.93;;;5.60;99.90;;;;;;5094802;28;20205;-67
2023/01/30 05:50:22;;;;;;;2.03;1.93;;;5.60;99.90;;;;;;5100879;28;20196;-67
2023/01/30 05:52:49;;;;;;;1.93;1.83;;;5.60;99.90;;;;;;5099341;28;20217;-67
2023/01/30 05:55:16;;;;;;;2.63;1.90;;;5.60;99.90;;;;;;5066990;28;20639;-67
2023/01/30 05:57:45;;;;;;;1.57;1.47;;;5.70;99.90;;;;;;5097949;28;20673;-67
2023/01/30 06:00:13;;;;;;;1.80;1.70;;;5.60;99.90;;;;;;5102498;28;20639;-66
2023/01/30 06:02:40;;;;;;;2.70;2.10;;;5.60;99.90;;;;;;5098527;28;20239;-66
2023/01/30 06:05:08;;;;;;;2.57;2.33;;;5.60;99.90;;;;;;5098008;28;20197;-67
2023/01/30 06:07:35;;;;;;;2.43;2.23;;;5.60;99.90;;;;;;5104247;28;20207;-67
2023/01/30 06:10:02;;;;;;;2.57;2.10;;;5.60;99.90;;;;;;5099539;28;20537;-66
2023/01/30 06:12:29;;;;;;;3.97;2.40;;;5.60;99.90;;;;;;5097668;28;21134;-67
2023/01/30 06:14:58;;;;;;;1.93;1.77;;;5.60;99.90;;;;;;5098332;28;20218;-67
2023/01/30 06:17:25;;;;;;;1.50;1.40;;;5.60;99.90;;;;;;5102302;28;20196;-67
2023/01/30 06:19:52;;;;;;;2.00;1.90;;;5.60;99.90;;;;;;5103222;28;20204;-67
2023/01/30 06:22:19;;;;;;;2.20;2.00;;;5.70;99.90;;;;;;5100194;28;20195;-67
2023/01/30 06:24:46;;;;;;;1.70;1.60;;;5.70;99.90;;;;;;5091353;28;20658;-68
2023/01/30 06:27:13;;;;;;;1.63;1.53;;;5.70;99.90;;;;;;5094947;28;20222;-67
2023/01/30 06:29:41;;;;;;;2.10;1.70;;;5.70;99.90;;;;;;5091962;28;20200;-67
2023/01/30 06:32:09;;;;;;;1.70;1.60;;;5.70;99.90;;;;;;5097786;28;20513;-67
2023/01/30 06:34:36;;;;;;;2.17;1.97;;;5.70;99.90;;;;;;5098650;28;20274;-67
2023/01/30 06:37:03;;;;;;;2.17;1.97;;;5.70;99.90;;;;;;5105584;28;20206;-67
2023/01/30 06:39:31;;;;;;;2.20;2.00;;;5.70;99.90;;;;;;5101354;28;20281;-65
2023/01/30 06:41:58;;;;;;;1.50;1.40;;;5.60;99.90;;;;;;5095192;28;20195;-66
2023/01/30 06:44:25;;;;;;;1.60;1.50;;;5.60;99.90;;;;;;5099451;28;20188;-66
2023/01/30 06:46:52;;;;;;;1.60;1.50;;;5.60;99.90;;;;;;5105999;28;20223;-67
2023/01/30 06:49:21;;;;;;;3.20;2.00;;;5.60;99.90;;;;;;5102568;28;20220;-67
2023/01/30 06:51:48;;;;;;;1.60;1.50;;;5.60;99.90;;;;;;5103087;28;20190;-67
2023/01/30 06:54:15;;;;;;;1.40;1.30;;;5.60;99.90;;;;;;5102038;28;20218;-67
2023/01/30 06:56:42;;;;;;;2.57;1.47;;;5.60;99.90;;;;;;5105085;28;20372;-67
2023/01/30 06:59:10;;;;;;;1.67;1.57;;;5.70;99.90;;;;;;5099561;28;20197;-68
2023/01/30 07:01:37;;;;;;;1.50;1.40;;;5.70;99.90;;;;;;5097128;28;20213;-67
2023/01/30 07:04:04;;;;;;;2.07;1.67;;;5.70;99.90;;;;;;5092324;28;20239;-66
2023/01/30 07:06:33;;;;;;;1.20;1.20;;;5.70;99.90;;;;;;5095143;28;20201;-66
2023/01/30 07:09:00;;;;;;;1.60;1.50;;;5.70;99.90;;;;;;5097183;28;20261;-67
2023/01/30 07:11:28;;;;;;;1.97;1.47;;;5.80;99.90;;;;;;5066256;28;20648;-66
2023/01/30 07:13:55;;;;;;;1.50;1.40;;;5.80;99.90;;;;;;5099841;28;20586;-66
2023/01/30 07:16:27;;;;;;;3.87;1.50;;;5.80;99.90;;;;;;5098545;28;20194;-66
2023/01/30 07:18:56;;;;;;;2.30;1.73;;;5.80;99.90;;;;;;5069832;28;20200;-65
2023/01/30 07:21:23;;;;;;;1.90;1.70;;;5.80;99.90;;;;;;5100888;28;20190;-66
2023/01/30 07:23:52;;;;;;;2.10;1.57;;;5.80;99.90;;;;;;5070755;28;20575;-66
2023/01/30 07:26:19;;;;;;;1.93;1.33;;;5.80;99.90;;;;;;5091936;28;20188;-66
2023/01/30 07:28:46;;;;;;;3.13;1.70;;;5.70;99.90;;;;;;5096532;28;20205;-66
2023/01/30 07:31:13;;;;;;;2.23;1.60;;;5.70;99.90;;;;;;5088024;28;20200;-66
2023/01/30 07:33:40;;;;;;;1.80;1.50;;;5.70;99.90;;;;;;5092449;28;20270;-65
2023/01/30 07:36:08;;;;;;;2.23;1.33;;;5.70;99.90;;;;;;5071474;28;20202;-66
2023/01/30 07:38:35;;;;;;;1.77;1.43;;;5.80;99.90;;;;;;5093078;28;20201;-66
2023/01/30 07:41:04;;;;;;;1.70;1.60;;;5.80;99.90;;;;;;5068780;28;20697;-66
2023/01/30 07:43:31;;;;;;;1.57;1.47;;;5.80;99.90;;;;;;5096430;28;20520;-65
2023/01/30 07:46:00;;;;;;;1.70;1.60;;;5.90;99.90;;;;;;5065454;28;20198;-66
2023/01/30 07:48:27;;;;;;;1.67;1.40;;;5.90;99.90;;;;;;5066219;28;20452;-66
2023/01/30 07:50:56;;;;;;;1.30;1.20;;;5.90;99.90;;;;;;5097961;28;20200;-66
2023/01/30 07:53:23;;;;;;;1.03;0.80;;;5.90;99.90;;;;;;5087637;28;20214;-67
2023/01/30 07:55:50;;;;;;;1.00;1.00;;;5.90;99.90;;;;;;5096703;28;20201;-67
2023/01/30 07:58:19;;;;;;;1.20;1.13;;;5.90;99.90;;;;;;5096964;28;20348;-66
2023/01/30 08:00:46;;;;;;;1.30;1.20;;;7.20;99.90;;;;;;5075143;28;21062;-66
2023/01/30 08:03:14;;;;;;;1.27;1.20;;;6.00;99.90;;;;;;5060766;28;20970;-66
2023/01/30 08:05:42;;;;;;;1.33;1.23;;;6.00;99.90;;;;;;5093107;28;20203;-66
2023/01/30 08:08:10;;;;;;;1.50;1.40;;;6.00;99.90;;;;;;5087425;28;20205;-66
2023/01/30 08:10:37;;;;;;;1.40;1.30;;;6.00;99.90;;;;;;5091521;28;20200;-66
2023/01/30 08:13:04;;;;;;;2.60;1.40;;;6.00;99.90;;;;;;5086360;28;20212;-66
2023/01/30 08:15:32;;;;;;;1.23;1.13;;;6.00;99.90;;;;;;5089038;28;20193;-66
2023/01/30 08:18:00;;;;;;;1.43;0.90;;;6.00;99.90;;;;;;5095583;28;20219;-67
2023/01/30 08:20:28;;;;;;;1.73;1.63;;;6.10;99.90;;;;;;5084186;28;20206;-67
2023/01/30 08:22:56;;;;;;;1.30;1.20;;;6.10;99.90;;;;;;5090166;28;20277;-66
2023/01/30 08:25:23;;;;;;;1.60;1.50;;;6.10;99.90;;;;;;5064721;28;20209;-67
2023/01/30 08:27:51;;;;;;;2.50;1.63;;;6.10;99.90;;;;;;5084960;28;20224;-65
2023/01/30 08:30:19;;;;;;;1.30;1.20;;;6.10;99.90;;;;;;5062587;28;20216;-66
2023/01/30 08:32:48;;;;;;;1.87;1.63;;;6.20;99.90;;;;;;5093885;28;20285;-66
2023/01/30 08:35:15;;;;;;;1.47;1.33;;;6.20;99.90;;;;;;5083057;28;20205;-66
2023/01/30 08:37:42;;;;;;;1.50;1.40;;;6.20;99.90;;;;;;5090447;28;20543;-66
2023/01/30 08:40:11;;;;;;;2.20;1.50;;;6.20;99.90;;;;;;5092059;28;20671;-66
2023/01/30 08:42:38;;;;;;;1.90;1.60;;;6.20;99.90;;;;;;5087523;28;20202;-65
2023/01/30 08:45:06;;;;;;;1.87;1.50;;;6.20;99.90;;;;;;5055923;28;20202;-66
2023/01/30 08:47:34;;;;;;;1.60;1.30;;;6.20;99.90;;;;;;5089088;28;20194;-67
2023/01/30 08:50:03;;;;;;;2.50;1.63;;;6.20;99.90;;;;;;5092780;28;20208;-67
2023/01/30 08:52:31;;;;;;;2.00;1.80;;;6.20;99.90;;;;;;5090040;28;20226;-66
2023/01/30 08:54:58;;;;;;;1.60;1.50;;;6.20;99.90;;;;;;5081268;28;20690;-67
2023/01/30 08:57:26;;;;;;;2.30;2.03;;;6.20;99.90;;;;;;5087787;28;20207;-66
2023/01/30 08:59:53;;;;;;;1.90;1.70;;;6.20;99.90;;;;;;5096358;28;20194;-66
2023/01/30 09:02:20;;;;;;;2.07;1.60;;;6.20;99.90;;;;;;5085128;28;20217;-66
2023/01/30 09:04:47;;;;;;;1.87;1.77;;;6.20;99.90;;;;;;5098704;28;20192;-66
2023/01/30 09:07:16;;;;;;;1.90;1.70;;;6.20;99.90;;;;;;5095599;28;20661;-66
2023/01/30 09:09:43;;;;;;;1.90;1.73;;;6.30;99.90;;;;;;5091176;28;20648;-67
2023/01/30 09:12:10;;;;;;;1.80;1.70;;;6.30;99.90;;;;;;5092678;28;20199;-67
2023/01/30 09:14:37;;;;;;;1.53;1.43;;;6.30;99.90;;;;;;5096301;28;20210;-67
2023/01/30 09:17:04;;;;;;;2.23;1.80;;;6.40;99.90;;;;;;5080498;28;20202;-66
2023/01/30 09:19:32;;;;;;;2.87;2.17;;;6.50;99.90;;;;;;5069048;28;20201;-66
2023/01/30 09:21:59;;;;;;;4.67;1.90;;;6.50;99.90;;;;;;5097556;28;20194;-66
2023/01/30 09:24:27;;;;;;;2.90;2.00;;;6.50;99.90;;;;;;5087317;28;20279;-66
2023/01/30 09:26:57;;;;;;;3.13;1.63;;;6.60;99.90;;;;;;5087783;28;20205;-66
2023/01/30 09:29:25;;;;;;;3.87;1.87;;;6.60;99.90;;;;;;5091190;28;20210;-66
2023/01/30 09:31:52;;;;;;;3.83;2.17;;;6.80;99.90;;;;;;5091208;28;20215;-67
2023/01/30 09:34:20;;;;;;;2.80;2.33;;;6.80;99.90;;;;;;5091649;28;20214;-66
2023/01/30 09:36:47;;;;;;;2.00;1.77;;;6.90;99.90;;;;;;5087807;28;20272;-66
2023/01/30 09:39:14;;;;;;;3.27;1.70;;;6.90;99.90;;;;;;5088895;28;20196;-67
2023/01/30 09:41:54;;;;;;;3.83;1.97;;;7.00;99.90;;;;;;5062368;28;20695;-66
2023/01/30 09:44:43;;;;;;;4.43;2.07;;;7.00;99.90;;;;;;5059866;28;20678;-66
2023/01/30 09:47:12;;;;;;;4.90;2.30;;;7.00;99.90;;;;;;5094851;28;20212;-66
2023/01/30 09:49:49;;;;;;;2.30;1.93;;;7.20;99.90;;;;;;5096716;28;20191;-66
2023/01/30 09:52:26;;;;;;;4.73;1.93;;;7.30;99.90;;;;;;5082599;28;20277;-66
2023/01/30 09:54:59;;;;;;;5.03;1.97;;;7.30;99.90;;;;;;5087343;28;21112;-66
2023/01/30 09:57:28;;;;;;;2.60;1.90;;;7.30;99.90;;;;;;5089128;28;20225;-66
2023/01/30 10:00:04;;;;;;;4.80;2.50;;;7.30;99.90;;;;;;5082390;28;20250;-66
2023/01/30 10:02:47;;;;;;;4.53;2.27;;;7.20;99.90;;;;;;5084864;28;20234;-66
2023/01/30 10:05:14;;;;;;;5.13;2.20;;;7.20;99.90;;;;;;5092268;28;20182;-66
2023/01/30 10:08:06;;;;;;;4.33;2.00;;;7.30;99.90;;;;;;5064656;28;21256;-66
2023/01/30 10:10:48;;;;;;;6.27;2.70;;;7.40;99.90;;;;;;5094710;28;20194;-66
2023/01/30 10:13:31;;;;;;;6.37;2.47;;;7.70;99.90;;;;;;5087998;28;20195;-64
2023/01/30 10:16:09;;;;;;;3.70;2.13;;;8.30;99.90;;;;;;5097680;28;20202;-66
2023/01/30 10:19:05;;;;;;;9.07;2.63;;;8.80;99.90;;;;;;5090318;28;20507;-66
2023/01/30 10:21:46;;;;;;;3.27;1.97;;;9.30;99.90;;;;;;5075207;28;20533;-66
2023/01/30 10:24:33;;;;;;;4.97;2.10;;;9.70;99.90;;;;;;5093475;28;20645;-66
2023/01/30 10:27:00;;;;;;;3.77;2.27;;;10.50;99.90;;;;;;5089498;28;20584;-66
2023/01/30 10:29:33;;;;;;;5.60;2.20;;;11.00;99.90;;;;;;5084336;28;20688;-66
2023/01/30 10:32:06;;;;;;;4.67;2.23;;;11.40;99.90;;;;;;5095435;28;20198;-66
2023/01/30 10:34:37;;;;;;;2.50;2.00;;;11.80;98.70;;;;;;5085207;28;20212;-66
2023/01/30 10:37:09;;;;;;;3.10;2.50;;;12.10;98.30;;;;;;5089444;28;20531;-66
2023/01/30 10:39:42;;;;;;;6.60;2.50;;;12.40;97.60;;;;;;5098345;28;20196;-67
2023/01/30 10:42:11;;;;;;;5.53;2.20;;;12.30;96.40;;;;;;5086962;28;20225;-66
2023/01/30 10:44:41;;;;;;;2.67;2.03;;;11.90;96.60;;;;;;5085638;28;20670;-67
2023/01/30 10:47:33;;;;;;;1.77;1.60;;;12.00;96.80;;;;;;5061262;28;20197;-66
2023/01/30 10:50:13;;;;;;;3.37;2.00;;;12.20;96.60;;;;;;5080925;28;20201;-66
2023/01/30 10:52:47;;;;;;;2.83;1.80;;;12.30;95.70;;;;;;5096817;28;20201;-66
2023/01/30 10:55:20;;;;;;;2.47;1.90;;;12.40;95.60;;;;;;5091844;28;20203;-66
2023/01/30 10:57:58;;;;;;;4.80;2.03;;;12.50;95.30;;;;;;5081688;28;20341;-67
2023/01/30 11:00:30;;;;;;;4.17;1.70;;;12.30;94.80;;;;;;5063576;28;20588;-66
2023/01/30 11:03:23;;;;;;;2.43;1.57;;;12.00;95.20;;;;;;5093988;28;20243;-66
2023/01/30 11:05:51;;;;;;;2.20;1.43;;;11.50;95.10;;;;;;5086102;28;20280;-66
2023/01/30 11:08:22;;;;;;;1.83;1.70;;;11.00;95.50;;;;;;5097399;28;20265;-66
2023/01/30 11:10:50;;;;;;;5.70;1.77;;;10.50;96.20;;;;;;5088721;28;20262;-66
2023/01/30 11:13:19;;;;;;;3.40;1.63;;;10.10;96.90;;;;;;5085949;28;20577;-66
2023/01/30 11:15:51;;;;;;;1.87;1.50;;;9.90;98.10;;;;;;5095548;28;20216;-66
2023/01/30 11:18:20;;;;;;;2.23;1.77;;;9.80;98.60;;;;;;5091921;28;20194;-66
2023/01/30 11:21:02;;;;;;;2.23;1.90;;;9.80;98.80;;;;;;5092003;28;20251;-66
2023/01/30 11:23:33;;;;;;;1.60;1.30;;;10.00;98.60;;;;;;5096137;28;20680;-66
2023/01/30 11:26:02;;;;;;;1.73;1.43;;;10.40;98.60;;;;;;5085706;28;20281;-65
2023/01/30 11:28:36;;;;;;;3.90;2.30;;;10.70;98.10;;;;;;5091590;28;20216;-67
2023/01/30 11:31:06;;;;;;;3.83;1.80;;;11.00;97.70;;;;;;5092151;28;20227;-65
2023/01/30 11:33:35;;;;;;;3.63;2.10;;;11.00;97.40;;;;;;5079480;28;20202;-66
2023/01/30 11:36:08;;;;;;;3.40;1.90;;;10.90;97.10;;;;;;5091005;28;20214;-66
2023/01/30 11:38:38;;;;;;;3.40;2.00;;;10.80;97.30;;;;;;5093247;28;20276;-65
2023/01/30 11:41:17;;;;;;;7.40;2.53;;;10.70;97.40;;;;;;5087404;28;20200;-65
2023/01/30 11:43:46;;;;;;;4.93;2.33;;;10.60;97.40;;;;;;5093470;28;20202;-65
2023/01/30 11:46:22;;;;;;;3.40;2.23;;;10.50;97.40;;;;;;5089333;28;20282;-66
2023/01/30 11:48:54;;;;;;;4.87;2.30;;;10.60;97.70;;;;;;5089663;28;20190;-65
2023/01/30 11:51:23;;;;;;;5.97;2.57;;;10.60;97.40;;;;;;5088869;28;20191;-66
2023/01/30 11:53:56;;;;;;;3.73;2.00;;;10.50;97.40;;;;;;5093039;28;20279;-66
2023/01/30 11:56:35;;;;;;;9.03;2.80;;;10.40;97.50;;;;;;5086787;28;20253;-65
2023/01/30 11:59:07;;;;;;;4.07;2.00;;;10.30;97.70;;;;;;5086344;28;20254;-66
2023/01/30 12:01:37;;;;;;;5.17;2.20;;;10.20;97.90;;;;;;5086939;28;20194;-66
2023/01/30 12:04:09;;;;;;;4.83;2.30;;;10.20;98.10;;;;;;5088343;28;20239;-65
2023/01/30 12:06:38;;;;;;;5.30;2.03;;;10.00;98.10;;;;;;5098110;28;20224;-66
2023/01/30 12:09:06;;;;;;;9.60;2.37;;;10.00;98.30;;;;;;5082491;28;20569;-66
2023/01/30 12:11:43;;;;;;;9.20;2.33;;;9.90;98.80;;;;;;5095034;28;20193;-67
2023/01/30 12:14:25;;;;;;;4.00;2.20;;;9.80;98.90;;;;;;5096027;28;20639;-66
2023/01/30 12:17:04;;;;;;;7.13;2.67;;;9.80;99.00;;;;;;5092534;28;20283;-66
2023/01/30 12:19:40;;;;;;;8.13;2.53;;;9.80;98.90;;;;;;5079840;28;20207;-66
2023/01/30 12:22:18;;;;;;;7.57;2.30;;;9.80;99.20;;;;;;5096181;28;20195;-65
2023/01/30 12:24:52;;;;;;;7.90;2.60;;;9.70;99.00;;;;;;5093582;28;20191;-66
2023/01/30 12:27:26;;;;;;;8.20;2.33;;;9.70;99.00;;;;;;5090092;28;20189;-66
2023/01/30 12:30:00;;;;;;;5.47;2.50;;;9.70;99.00;;;;;;5083267;28;20211;-66
2023/01/30 12:32:31;;;;;;;5.83;2.03;;;9.60;99.00;;;;;;5092326;28;20199;-67
2023/01/30 12:34:58;;;;;;;3.27;1.63;;;9.60;99.10;;;;;;5087940;28;20213;-67
2023/01/30 12:37:43;;;;;;;8.57;2.33;;;9.50;99.10;;;;;;5088812;28;20206;-65
2023/01/30 12:40:25;;;;;;;9.17;2.30;;;9.50;99.20;;;;;;5092078;28;20193;-66
2023/01/30 12:43:17;;;;;;;7.87;2.37;;;9.30;99.20;;;;;;5090697;28;20220;-65
2023/01/30 12:45:54;;;;;;;7.27;2.37;;;9.20;99.40;;;;;;5090186;28;20650;-66
2023/01/30 12:48:43;;;;;;;6.17;2.10;;;9.10;99.90;;;;;;5060943;28;20202;-66
2023/01/30 12:51:22;;;;;;;6.00;1.73;;;9.00;99.90;;;;;;5088259;28;20555;-66
2023/01/30 12:53:58;;;;;;;7.13;1.80;;;8.90;99.90;;;;;;5087105;28;20636;-66
2023/01/30 12:56:52;;;;;;;6.13;1.53;;;8.90;99.90;;;;;;5094142;28;20253;-66
2023/01/30 12:59:26;;;;;;;4.67;1.80;;;8.80;99.90;;;;;;5094679;28;20185;-66
2023/01/30 13:02:09;;;;;;;4.23;1.87;;;8.90;99.90;;;;;;5094158;28;20198;-66
2023/01/30 13:04:45;;;;;;;6.10;2.00;;;9.00;99.90;;;;;;5096813;28;20340;-65
2023/01/30 13:07:24;;;;;;;6.87;2.33;;;9.00;99.90;;;;;;5096942;28;20568;-66
2023/01/30 13:10:11;;;;;;;7.97;2.20;;;9.00;99.90;;;;;;5092874;28;20204;-66
2023/01/30 13:12:45;;;;;;;9.20;2.30;;;9.00;99.90;;;;;;5091930;28;20199;-66
2023/01/30 13:15:22;;;;;;;9.93;2.60;;;8.80;99.90;;;;;;5086049;28;20270;-66
2023/01/30 13:18:01;;;;;;;6.00;1.70;;;8.80;99.90;;;;;;5090037;28;20191;-66
2023/01/30 13:20:49;;;;;;;4.40;1.60;;;8.70;99.90;;;;;;5095217;28;20710;-66
2023/01/30 13:23:20;;;;;;;6.30;1.70;;;8.70;99.90;;;;;;5095463;28;20268;-66
2023/01/30 13:25:59;;;;;;;5.03;1.50;;;8.70;99.90;;;;;;5090434;28;20674;-65